AirNav   Air Wisconsin Up To $57,000 Bonus
 
 1125 users online  

5P5 Presho Municipal Airport
Presho, South Dakota, USA

GOING TO PRESHO?


FAA INFORMATION EFFECTIVE 19 MAY 2022

Location

FAA Identifier: 5P5
Lat/Long: 43-54-21.5900N 100-02-12.0500W
43-54.359833N 100-02.200833W
43.9059972,-100.0366806
(estimated)
Elevation: 1760 ft. / 536.4 m (surveyed)
Variation: 09E (1985)
From city: 1 mile E of PRESHO, SD
Time zone: UTC -5 (UTC -6 during Standard Time)
Zip code: 57568

Airport Operations

Airport use: Open to the public
Control tower: no
ARTCC: MINNEAPOLIS CENTER
FSS: HURON FLIGHT SERVICE STATION
NOTAMs facility: HON (NOTAM-D service available)
Attendance: UNATNDD
Wind indicator: lighted
Segmented circle: no
Lights: ACTVT LIRL RY 10/28 - CTAF.
Beacon: white-green (lighted land airport)
Operates sunset to sunrise.

Airport Communications

CTAF: 122.9

Nearby radio navigation aids

VOR radial/distance  VOR name  Freq  Var
PIRr159/29.8PIERRE VORTAC112.5011E

Airport Services

Parking: tiedowns
Airframe service: NONE
Powerplant service: NONE
Bottled oxygen: NONE
Bulk oxygen: NONE

Runway Information

Runway 10/28

Dimensions: 3350 x 150 ft. / 1021 x 46 m
Surface: turf/gravel, in fair condition
CNTR 52 FT GRAVEL PLUS GRAVEL TURNAROUNDS.
Runway edge lights: low intensity
Runway edge markings: 10/28 MKD WITH BLACK AND WHITE CONES.
RUNWAY 10  RUNWAY 28
Latitude: 43-54.444167N43-54.275500N
Longitude: 100-02.563833W100-01.837833W
Elevation: 1756.0 ft.1742.0 ft.
Traffic pattern: leftleft
Runway heading: 098 magnetic, 107 true278 magnetic, 287 true
Runway end identifier lights: nono
Obstructions: 15 ft. road, 300 ft. from runway, 20:1 slope to clear4 ft. fence, 110 ft. from runway, 27:1 slope to clear

Airport Ownership and Management from official FAA records

Ownership: Publicly-owned
Owner: CITY OF PRESHO
PO BOX 354
PRESHO, SD 57568
Phone 605-895-2337
Manager: DUSTIN SMITH
PO BOX 250
PRESHO, SD 57568
Phone 605-280-4641

Airport Operational Statistics

Aircraft based on the field: 9
Single engine airplanes: 8
Multi engine airplanes: 1
    
Aircraft operations: avg 44/week *
96% local general aviation
4% transient general aviation
* for 12-month period ending 29 April 2020

Additional Remarks

WILDLIFE & WATERFOWL ON & INVOF ARPT.
FOR CD CTC MINNEAPOLIS ARTCC AT 651-463-5588.

Instrument Procedures

There are no published instrument procedures at 5P5.

Some nearby airports with instrument procedures:

KPIR - Pierre Regional Airport (31 nm N)
9V9 - Chamberlain Municipal Airport (32 nm E)
KICR - Winner Regional Airport (32 nm S)
9D0 - Highmore Municipal Airport (46 nm NE)
98D - Onida Municipal Airport (48 nm N)
 
Loc | Ops | Rwys | IFR | FBO | Links
Com | Nav | Svcs | Stats | Notes

Bismarck Aero Center
AirBoss

 
Area around 5P5 (Presho Municipal Airport)
 
Road maps at: MapQuest Bing Google
 
Aerial photo
WARNING: Photo may not be current or correct
Aerial photo of 5P5 (Presho Municipal Airport)
Photo by Steve Hamilton
Photo taken 29-Oct-2008

Do you have a better or more recent aerial photo of Presho Municipal Airport that you would like to share? If so, please send us your photo.

 
Sectional chart

 
Airport distance calculator
Flying to Presho Municipal Airport? Find the distance to fly.

From to 5P5

Sunrise and sunset
Times for 28-May-2022
 Local
(UTC-5)
 Zulu
(UTC)
Morning civil twilight05:2910:29
Sunrise06:0411:04
Sunset21:1102:11
Evening civil twilight21:4602:46

Current date and time
Zulu (UTC)  28-May-2022 14:00:25
Local (UTC-5)  28-May-2022 09:00:25
 
METAR
KPIR 
31nm N 
281353Z AUTO 28007KT 10SM CLR 17/10 A2965 RMK AO2 SLP028 T01670100
KICR 
32nm S 
281353Z AUTO 32011KT 10SM CLR 20/12 A2966 RMK AO2 SLP026 T02000122
K9V9 
32nm E 
281335Z AUTO 28006KT 10SM CLR 16/12 A2965 RMK AO2 T01640119
TAF
KPIR 
31nm N 
281131Z 2812/2912 28003KT P6SM SKC FM282200 11014G20KT P6SM SCT250 FM290200 08010G19KT P6SM VCTS BKN050CB FM290600 05006KT P6SM SCT250
NOTAMs
Click for the latest NOTAMs
NOTAMs are issued by the DoD/FAA and will open in a separate window not controlled by AirNav.

 

 
 

Would you like to see your business listed on this page?

 If your business provides an interesting product or service to pilots, flight crews, aircraft, or users of the Presho Municipal Airport, you should consider listing it here.  To start the listing process, click on the button below
 
Add a business
 

Other Pages about Presho Municipal Airport

Update a link
 
Copyright © AirNav, LLC. All rights reserved. Privacy Policy  Contact